KHSB/HSB METAR and TAF weather

Enter ICAO airport designator
Station Type Date Time Source
KHSB METAR 2021/01/17 18:35 UTC NOAA

KHSB 171835Z AUTO 29009KT 10SM SCT015 BKN026 OVC032 03/M03 A2983 RMK AO2 T00251030


Station Type Date Time Source
KHSB Decoded METAR 2021/01/17 18:35 UTC NOAA

Harrisburg, Harrisburg-Raleigh Airport, IL, United States (KHSB) 37-48-41N 088-32-57W
Jan 17, 2021 - 01:35 PM EST / 2021.01.17 1835 UTC
Wind: from the WNW (290 degrees) at 10 MPH (9 KT):0
Visibility: 10 mile(s):0
Sky conditions: overcast
Temperature: 36.5 F (2.5 C)
Dew Point: 26.6 F (-3.0 C)
Relative Humidity: 66%
Pressure (altimeter): 29.83 in. Hg (1010 hPa)
ob: KHSB 171835Z AUTO 29009KT 10SM SCT015 BKN026 OVC032 03/M03 A2983 RMK AO2 T00251030
cycle: 18

Station Type Date Time Source
KHSB TAF UTC NOAA

Error!

Example: see airport list